map of SAA home
Great Circle Mapper logo
SAA - Airport
Location
City:  Saratoga, Wyoming, United States
Name:Shively Field
ICAO / IATA:KSAA / SAA
FAA:SAA

Details
Type:Airport (Airfield)
Use:Public/Civil
Latitude:4126'37"N (41.443528)
Longitude:10649'39"W (-106.827527)
Datum:WGS 1984
Elevation:7015 ft (2138 m)
Runways:1
Longest:8801 × 100 ft (2683 × 30.5 m), paved

Time
Time Zone:UTC-7 (DST-6)
Local Time:

Weather
METAR:KSAA 220415Z AUTO 18003KT 10SM SCT035 OVC100 06/04 A3011 RMK AO2 LTG DSNT S

Related Locations
Nearby:
Farthest:RRG: 10830 mi / 17430 km
Plaine Corail, Rodrigues Island, MU

Find:

   beyond  
but within

Other Information
Maps:
NOTAMs:
Links:
Sources:

  
flag of United States
flag of Wyoming
  

Sectional Chart

Flight Planning
at skyvector.com

Satellite Image

Google Maps Satellite View

 

Copyright © 2004-2014 Karl L. Swartz. All rights reserved.
The Great Circle Mapper name and logo are trademarks of the Great Circle Mapper.
All other trademarks mentioned herein belong to their respective owners.
Please see credits for attibutions and further copyright information.

  Follow gcmap on Facebook Follow gcmap on Twitter

hCard Microformat

Geo Microformat